createdAt,value
2018-09-24T00:00:29.220Z,0.00
2018-09-24T00:01:29.301Z,0.00
2018-09-24T00:02:29.581Z,0.00
2018-09-24T00:03:29.302Z,0.00
2018-09-24T00:04:29.393Z,0.00
2018-09-24T00:05:29.364Z,0.00
2018-09-24T00:06:29.448Z,0.00
2018-09-24T00:08:29.509Z,0.00
2018-09-24T00:09:29.792Z,0.00
2018-09-24T00:10:29.524Z,0.00
2018-09-24T00:11:29.546Z,0.00
2018-09-24T00:12:29.572Z,0.00
2018-09-24T00:13:29.660Z,0.00
2018-09-24T00:14:29.688Z,0.00
2018-09-24T00:15:29.968Z,0.00
2018-09-24T00:16:29.701Z,0.00
2018-09-24T00:17:29.778Z,0.00
2018-09-24T00:18:29.811Z,0.00
2018-09-24T00:19:29.854Z,0.00
2018-09-24T00:20:29.877Z,0.00
2018-09-24T00:21:29.847Z,0.00
2018-09-24T00:22:30.173Z,0.00
2018-09-24T00:23:29.957Z,0.00
2018-09-24T00:24:29.988Z,0.00
2018-09-24T00:25:29.971Z,0.00
2018-09-24T00:26:30.049Z,0.00
2018-09-24T00:27:30.023Z,0.00
2018-09-24T00:28:30.064Z,0.00
2018-09-24T00:29:30.441Z,0.00
2018-09-24T00:30:30.169Z,0.00
2018-09-24T00:31:30.151Z,0.00
2018-09-24T00:32:30.184Z,0.00
2018-09-24T00:33:30.209Z,0.00
2018-09-24T00:34:30.284Z,0.00
2018-09-24T00:35:30.320Z,0.00
2018-09-24T00:36:30.596Z,0.00
2018-09-24T00:37:30.383Z,0.00
2018-09-24T00:38:30.408Z,0.00
2018-09-24T00:39:30.388Z,0.00
2018-09-24T00:40:30.464Z,0.00
2018-09-24T00:41:30.452Z,0.00
2018-09-24T00:42:30.523Z,0.00
2018-09-24T00:43:30.886Z,0.00
2018-09-24T00:44:30.585Z,0.00
2018-09-24T00:45:30.616Z,0.00
2018-09-24T00:46:30.648Z,0.00
2018-09-24T00:47:30.675Z,0.00
2018-09-24T00:48:30.658Z,0.00
2018-09-24T00:49:30.687Z,0.00
2018-09-24T00:50:31.023Z,0.00
2018-09-24T00:51:30.801Z,0.00
2018-09-24T00:52:30.780Z,0.00
2018-09-24T00:53:30.804Z,0.00
2018-09-24T00:54:30.885Z,0.00
2018-09-24T00:55:30.923Z,0.00
2018-09-24T00:56:30.950Z,0.00
2018-09-24T00:57:31.242Z,0.00
2018-09-24T00:58:30.963Z,0.00
2018-09-24T00:59:30.993Z,0.00
2018-09-24T01:00:31.024Z,0.00
2018-09-24T01:01:31.101Z,0.00
2018-09-24T01:02:31.123Z,0.00
2018-09-24T01:03:31.156Z,0.00
2018-09-24T01:04:31.432Z,0.00
2018-09-24T01:05:31.163Z,0.00
2018-09-24T01:06:31.243Z,0.00
2018-09-24T01:07:31.279Z,0.00
2018-09-24T01:08:31.256Z,0.00
2018-09-24T01:09:31.335Z,0.00
2018-09-24T01:10:31.371Z,0.00
2018-09-24T01:11:31.644Z,0.00
2018-09-24T01:12:31.372Z,0.00
2018-09-24T01:13:31.452Z,0.00
2018-09-24T01:14:31.483Z,0.00
2018-09-24T01:15:31.465Z,0.00
2018-09-24T01:16:31.549Z,0.00
2018-09-24T01:17:31.524Z,0.00
2018-09-24T01:18:31.862Z,0.00
2018-09-24T01:19:31.632Z,0.00
2018-09-24T01:20:31.666Z,0.00
2018-09-24T01:21:31.649Z,0.00
2018-09-24T01:22:31.725Z,0.00
2018-09-24T01:23:31.754Z,0.00
2018-09-24T01:24:31.739Z,0.00
2018-09-24T01:26:32.108Z,0.00
2018-09-24T01:27:31.876Z,0.00
2018-09-24T01:28:31.908Z,0.00
2018-09-24T01:29:31.891Z,0.00
2018-09-24T01:30:31.970Z,0.00
2018-09-24T01:31:31.954Z,0.00
2018-09-24T01:32:31.984Z,0.00
2018-09-24T01:33:32.353Z,0.00
2018-09-24T01:34:32.097Z,0.00
2018-09-24T01:35:32.135Z,0.00
2018-09-24T01:36:32.098Z,0.00
2018-09-24T01:37:32.144Z,0.00
2018-09-24T01:38:32.181Z,0.00
2018-09-24T01:39:32.182Z,0.00
2018-09-24T01:40:32.567Z,0.00
2018-09-24T01:41:32.293Z,0.00
2018-09-24T01:42:32.328Z,0.00
2018-09-24T01:43:32.302Z,0.00
2018-09-24T01:44:32.388Z,0.00
2018-09-24T01:45:32.362Z,0.00
2018-09-24T01:46:32.445Z,0.00
2018-09-24T01:47:32.730Z,0.00
2018-09-24T01:48:32.479Z,0.00
2018-09-24T01:49:32.491Z,0.00
2018-09-24T01:50:32.521Z,0.00
2018-09-24T01:51:32.600Z,0.00
2018-09-24T01:52:32.574Z,0.00
2018-09-24T01:53:32.655Z,0.00
2018-09-24T01:54:32.930Z,0.00
2018-09-24T01:55:32.710Z,0.00
2018-09-24T01:56:32.739Z,0.00
2018-09-24T01:57:32.719Z,0.00
2018-09-24T01:58:32.800Z,0.00
2018-09-24T01:59:32.798Z,0.00
2018-09-24T02:00:32.865Z,0.00
2018-09-24T02:01:33.153Z,0.00
2018-09-24T02:03:32.900Z,0.00
2018-09-24T02:04:32.935Z,0.00
2018-09-24T02:05:32.957Z,0.00
2018-09-24T02:06:33.040Z,0.00
2018-09-24T02:07:33.075Z,0.00
2018-09-24T02:08:33.352Z,0.00
2018-09-24T02:09:33.138Z,0.00
2018-09-24T02:10:33.158Z,0.00
2018-09-24T02:11:33.141Z,0.00
2018-09-24T02:12:33.220Z,0.00
2018-09-24T02:13:33.249Z,0.00
2018-09-24T02:14:33.530Z,0.00
2018-09-24T02:15:33.308Z,0.00
2018-09-24T02:16:33.344Z,0.00
2018-09-24T02:17:33.327Z,0.00
2018-09-24T02:18:33.348Z,0.00
2018-09-24T02:19:33.426Z,0.00
2018-09-24T02:20:33.708Z,0.00
2018-09-24T02:21:33.444Z,0.00
2018-09-24T02:22:33.477Z,0.00
2018-09-24T02:23:33.563Z,0.00
2018-09-24T02:24:33.529Z,0.00
2018-09-24T02:25:33.555Z,0.00
2018-09-24T02:26:33.892Z,0.00
2018-09-24T02:27:33.671Z,0.00
2018-09-24T02:28:33.695Z,0.00
2018-09-24T02:29:33.681Z,0.00
2018-09-24T02:30:33.759Z,0.00
2018-09-24T02:31:33.789Z,0.00
2018-09-24T02:32:33.784Z,0.00
2018-09-24T02:33:34.096Z,0.00
2018-09-24T02:34:33.835Z,0.00
2018-09-24T02:35:33.862Z,0.00
2018-09-24T02:37:33.915Z,0.00
2018-09-24T02:38:34.005Z,0.00
2018-09-24T02:39:34.040Z,0.00
2018-09-24T02:40:34.303Z,0.00
2018-09-24T02:41:34.032Z,0.00
2018-09-24T02:42:34.123Z,0.00
2018-09-24T02:43:34.101Z,0.00
2018-09-24T02:44:34.133Z,0.00
2018-09-24T02:45:34.206Z,0.00
2018-09-24T02:46:34.187Z,0.00
2018-09-24T02:47:34.522Z,0.00
2018-09-24T02:48:34.292Z,0.00
2018-09-24T02:49:34.278Z,0.00
2018-09-24T02:50:34.353Z,0.00
2018-09-24T02:51:34.392Z,0.00
2018-09-24T02:52:34.423Z,0.00
2018-09-24T02:53:34.448Z,0.00
2018-09-24T02:54:34.738Z,0.00
2018-09-24T02:55:34.454Z,0.00
2018-09-24T02:56:34.530Z,0.00
2018-09-24T02:57:34.574Z,0.00
2018-09-24T02:58:34.596Z,0.00
2018-09-24T02:59:34.576Z,0.00
2018-09-24T03:00:34.600Z,0.00
2018-09-24T03:01:34.930Z,0.00
2018-09-24T03:02:34.709Z,0.00
2018-09-24T03:03:34.745Z,0.00
2018-09-24T03:06:34.827Z,0.00
2018-09-24T03:07:34.858Z,0.00
2018-09-24T03:08:35.138Z,0.00
2018-09-24T03:09:34.920Z,0.00
2018-09-24T03:10:34.903Z,0.00
2018-09-24T03:11:34.932Z,0.00
2018-09-24T03:12:34.956Z,0.00
2018-09-24T03:13:35.046Z,0.00
2018-09-24T03:14:35.084Z,0.00
2018-09-24T03:15:35.354Z,0.00
2018-09-24T03:16:35.082Z,0.00
2018-09-24T03:17:35.120Z,0.00
2018-09-24T03:18:35.189Z,0.00
2018-09-24T03:19:35.167Z,0.00
2018-09-24T03:20:35.246Z,0.00
2018-09-24T03:21:35.225Z,0.00
2018-09-24T03:22:35.616Z,0.00
2018-09-24T03:23:35.357Z,0.00
2018-09-24T03:24:35.317Z,0.00
2018-09-24T03:25:35.351Z,0.00
2018-09-24T03:26:35.436Z,0.00
2018-09-24T03:27:35.410Z,0.00
2018-09-24T03:28:35.484Z,0.00
2018-09-24T03:29:35.770Z,0.00
2018-09-24T03:30:35.555Z,0.00
2018-09-24T03:31:35.579Z,0.00
2018-09-24T03:32:35.607Z,0.00
2018-09-24T03:33:35.637Z,0.00
2018-09-24T03:34:35.662Z,0.00
2018-09-24T03:35:35.658Z,0.00
2018-09-24T03:36:35.983Z,0.00
2018-09-24T03:37:35.757Z,0.00
2018-09-24T03:38:35.738Z,0.00
2018-09-24T03:39:35.870Z,0.00
2018-09-24T03:40:35.795Z,0.00
2018-09-24T03:41:35.891Z,0.00
2018-09-24T03:42:35.912Z,0.00
2018-09-24T03:43:36.180Z,0.00
2018-09-24T03:44:35.970Z,0.00
2018-09-24T03:45:35.943Z,0.00
2018-09-24T03:46:36.021Z,0.00
2018-09-24T03:47:36.001Z,0.00
2018-09-24T03:48:36.077Z,0.00
2018-09-24T03:49:36.072Z,0.00
2018-09-24T03:50:36.395Z,0.00
2018-09-24T03:51:36.173Z,0.00
2018-09-24T03:52:36.169Z,0.00
2018-09-24T03:53:36.194Z,0.00
2018-09-24T03:54:36.277Z,0.00
2018-09-24T03:55:36.291Z,0.00
2018-09-24T03:56:36.322Z,0.00
2018-09-24T03:57:36.601Z,0.00
2018-09-24T03:58:36.385Z,0.00
2018-09-24T03:59:36.360Z,0.00
2018-09-24T04:00:36.443Z,0.00
2018-09-24T04:01:36.468Z,0.00
2018-09-24T04:02:36.498Z,0.00
2018-09-24T04:03:36.529Z,0.00
2018-09-24T04:04:36.827Z,0.00
2018-09-24T04:05:36.590Z,0.00
2018-09-24T04:06:36.619Z,0.00
2018-09-24T04:07:36.649Z,0.00
2018-09-24T04:08:36.626Z,0.00
2018-09-24T04:12:36.793Z,0.00
2018-09-24T04:13:37.074Z,0.00
2018-09-24T04:14:36.863Z,0.00
2018-09-24T04:15:36.830Z,0.00
2018-09-24T04:16:36.919Z,0.00
2018-09-24T04:17:36.896Z,0.00
2018-09-24T04:18:36.981Z,0.00
2018-09-24T04:19:37.065Z,0.00
2018-09-24T04:20:37.283Z,0.00
2018-09-24T04:21:37.015Z,0.00
2018-09-24T04:22:37.096Z,0.00
2018-09-24T04:23:37.067Z,0.00
2018-09-24T04:24:37.148Z,0.00
2018-09-24T04:25:37.127Z,0.00
2018-09-24T04:26:37.208Z,0.00
2018-09-24T04:27:37.848Z,0.00
2018-09-24T04:28:37.223Z,0.00
2018-09-24T04:29:37.312Z,0.00
2018-09-24T04:30:37.338Z,0.00
2018-09-24T04:31:37.306Z,0.00
2018-09-24T04:32:37.341Z,0.00
2018-09-24T04:33:37.373Z,0.00
2018-09-24T04:34:37.698Z,0.00
2018-09-24T04:35:37.485Z,0.00
2018-09-24T04:36:37.455Z,0.00
2018-09-24T04:37:37.484Z,0.00
2018-09-24T04:38:37.534Z,0.00
2018-09-24T04:39:37.650Z,0.00
2018-09-24T04:40:37.646Z,0.00
2018-09-24T04:41:37.908Z,0.00
2018-09-24T04:42:37.699Z,0.00
2018-09-24T04:43:37.674Z,0.00
2018-09-24T04:44:37.742Z,0.00
2018-09-24T04:45:37.812Z,0.00
2018-09-24T04:46:37.818Z,0.00
2018-09-24T04:47:37.794Z,0.00
2018-09-24T04:48:38.117Z,0.00
2018-09-24T04:49:37.844Z,0.00
2018-09-24T04:50:37.920Z,0.00
2018-09-24T04:51:37.951Z,0.00
2018-09-24T04:52:37.939Z,0.00
2018-09-24T04:53:37.989Z,0.00
2018-09-24T04:54:38.016Z,0.00
2018-09-24T04:55:38.317Z,0.00
2018-09-24T04:56:38.070Z,0.00
2018-09-24T04:57:38.089Z,0.00
2018-09-24T04:58:38.247Z,0.00
2018-09-24T04:59:38.187Z,4.00
2018-09-24T05:00:38.177Z,4.00
2018-09-24T05:01:38.203Z,0.00
2018-09-24T05:02:38.279Z,4.00
2018-09-24T05:03:38.255Z,4.00
2018-09-24T05:04:38.335Z,4.00
2018-09-24T05:05:38.317Z,8.00
2018-09-24T05:06:38.400Z,8.00
2018-09-24T05:07:38.682Z,12.00
2018-09-24T05:08:38.406Z,12.00
2018-09-24T05:09:38.483Z,12.00
2018-09-24T05:10:38.519Z,16.00
2018-09-24T05:11:38.499Z,16.00
2018-09-24T05:12:38.572Z,20.00
2018-09-24T05:13:38.854Z,24.00
2018-09-24T05:14:38.605Z,28.00
2018-09-24T05:15:38.661Z,32.00
2018-09-24T05:16:38.652Z,36.00
2018-09-24T05:18:38.750Z,48.00
2018-09-24T05:19:38.785Z,56.00
2018-09-24T05:20:38.764Z,60.00
2018-09-24T05:21:38.794Z,64.00
2018-09-24T05:22:38.875Z,72.00
2018-09-24T05:23:38.909Z,80.00
2018-09-24T05:24:38.937Z,88.00
2018-09-24T05:25:38.913Z,96.00
2018-09-24T05:26:39.248Z,104.00
2018-09-24T05:27:38.968Z,116.00
2018-09-24T05:28:39.050Z,124.00
2018-09-24T05:29:39.082Z,132.00
2018-09-24T05:30:39.056Z,140.00
2018-09-24T05:31:39.089Z,152.00
2018-09-24T05:32:39.122Z,164.00
2018-09-24T05:33:39.497Z,172.00
2018-09-24T05:34:39.321Z,180.00
2018-09-24T05:35:39.253Z,192.00
2018-09-24T05:36:39.232Z,204.00
2018-09-24T05:37:39.325Z,212.00
2018-09-24T05:38:39.444Z,228.00
2018-09-24T05:39:39.326Z,240.00
2018-09-24T05:40:39.706Z,248.00
2018-09-24T05:41:39.381Z,260.00
2018-09-24T05:42:39.416Z,268.00
2018-09-24T05:43:39.511Z,280.00
2018-09-24T05:44:39.469Z,288.00
2018-09-24T05:45:39.501Z,304.00
2018-09-24T05:46:39.580Z,312.00
2018-09-24T05:47:39.867Z,320.00
2018-09-24T05:48:39.642Z,336.00
2018-09-24T05:49:39.621Z,348.00
2018-09-24T05:50:39.657Z,356.00
2018-09-24T05:51:39.685Z,368.00
2018-09-24T05:52:39.761Z,380.00
2018-09-24T05:53:39.737Z,392.00
2018-09-24T05:54:40.065Z,400.00
2018-09-24T05:55:39.846Z,408.00
2018-09-24T05:56:39.831Z,420.00
2018-09-24T05:57:39.863Z,428.00
2018-09-24T05:58:39.888Z,436.00
2018-09-24T05:59:39.916Z,448.00
2018-09-24T06:00:40.010Z,456.00
2018-09-24T06:01:40.274Z,468.00
2018-09-24T06:02:40.058Z,472.00
2018-09-24T06:03:40.035Z,488.00
2018-09-24T06:04:40.157Z,492.00
2018-09-24T06:05:40.093Z,504.00
2018-09-24T06:06:40.175Z,508.00
2018-09-24T06:07:40.151Z,520.00
2018-09-24T06:08:40.492Z,532.00
2018-09-24T06:09:40.266Z,536.00
2018-09-24T06:10:40.289Z,548.00
2018-09-24T06:11:40.374Z,556.00
2018-09-24T06:12:40.303Z,564.00
2018-09-24T06:13:40.394Z,580.00
2018-09-24T06:14:40.391Z,604.00
2018-09-24T06:15:40.387Z,636.00
2018-09-24T06:16:40.476Z,652.00
2018-09-24T06:17:40.450Z,664.00
2018-09-24T06:18:40.527Z,676.00
2018-09-24T06:19:40.504Z,680.00
2018-09-24T06:20:40.587Z,696.00
2018-09-24T06:21:40.927Z,720.00
2018-09-24T06:22:40.647Z,728.00
2018-09-24T06:23:40.680Z,736.00
2018-09-24T06:24:40.665Z,744.00
2018-09-24T06:25:40.698Z,768.00
2018-09-24T06:26:40.772Z,740.00
2018-09-24T06:28:41.130Z,796.00
2018-09-24T06:29:40.802Z,764.00
2018-09-24T06:30:40.899Z,716.00
2018-09-24T06:31:40.864Z,736.00
2018-09-24T06:32:40.896Z,708.00
2018-09-24T06:33:40.990Z,712.00
2018-09-24T06:34:41.020Z,712.00
2018-09-24T06:35:41.056Z,712.00
2018-09-24T06:36:41.014Z,720.00
2018-09-24T06:37:41.040Z,728.00
2018-09-24T06:38:41.126Z,740.00
2018-09-24T06:39:41.164Z,748.00
2018-09-24T06:40:41.127Z,756.00
2018-09-24T06:41:41.173Z,764.00
2018-09-24T06:42:41.246Z,780.00
2018-09-24T06:43:41.224Z,780.00
2018-09-24T06:44:41.305Z,752.00
2018-09-24T06:45:41.287Z,776.00
2018-09-24T06:46:41.367Z,772.00
2018-09-24T06:47:41.343Z,772.00
2018-09-24T06:48:41.369Z,772.00
2018-09-24T06:49:41.510Z,776.00
2018-09-24T06:50:41.486Z,780.00
2018-09-24T06:51:41.455Z,784.00
2018-09-24T06:52:41.533Z,788.00
2018-09-24T06:53:41.529Z,792.00
2018-09-24T06:54:41.606Z,796.00
2018-09-24T06:55:41.623Z,800.00
2018-09-24T06:56:41.614Z,804.00
2018-09-24T06:57:41.699Z,804.00
2018-09-24T06:58:41.970Z,812.00
2018-09-24T06:59:41.800Z,796.00
2018-09-24T07:00:41.732Z,672.00
2018-09-24T07:01:41.757Z,668.00
2018-09-24T07:02:41.834Z,680.00
2018-09-24T07:03:41.860Z,732.00
2018-09-24T07:04:42.180Z,824.00
2018-09-24T07:05:41.932Z,828.00
2018-09-24T07:06:41.950Z,832.00
2018-09-24T07:07:41.984Z,840.00
2018-09-24T07:08:41.963Z,844.00
2018-09-24T07:09:42.039Z,848.00
2018-09-24T07:10:42.323Z,852.00
2018-09-24T07:11:42.056Z,848.00
2018-09-24T07:12:42.134Z,748.00
2018-09-24T07:13:42.160Z,856.00
2018-09-24T07:14:42.143Z,856.00
2018-09-24T07:15:42.224Z,824.00
2018-09-24T07:16:42.254Z,816.00
2018-09-24T07:17:42.286Z,868.00
2018-09-24T07:18:42.307Z,864.00
2018-09-24T07:19:42.300Z,860.00
2018-09-24T07:20:42.376Z,856.00
2018-09-24T07:21:42.401Z,860.00
2018-09-24T07:22:42.681Z,864.00
2018-09-24T07:23:42.456Z,868.00
2018-09-24T07:24:42.484Z,872.00
2018-09-24T07:25:42.516Z,876.00
2018-09-24T07:26:42.554Z,880.00
2018-09-24T07:27:42.611Z,880.00
2018-09-24T07:28:42.610Z,884.00
2018-09-24T07:29:42.886Z,884.00
2018-09-24T07:30:42.674Z,892.00
2018-09-24T07:31:42.645Z,892.00
2018-09-24T07:32:42.679Z,896.00
2018-09-24T07:33:42.761Z,900.00
2018-09-24T07:34:42.785Z,904.00
2018-09-24T07:35:42.773Z,904.00
2018-09-24T07:36:43.097Z,904.00
2018-09-24T07:37:42.878Z,916.00
2018-09-24T07:38:42.916Z,920.00
2018-09-24T07:39:42.937Z,928.00
2018-09-24T07:40:42.913Z,928.00
2018-09-24T07:41:43.002Z,932.00
2018-09-24T07:42:42.977Z,936.00
2018-09-24T07:43:43.060Z,956.00
2018-09-24T07:44:43.091Z,992.00
2018-09-24T07:45:43.070Z,1084.00
2018-09-24T07:46:43.155Z,1312.00
2018-09-24T07:47:43.142Z,1468.00
2018-09-24T07:48:43.202Z,1640.00
2018-09-24T07:49:43.488Z,1680.00
2018-09-24T07:50:43.267Z,1720.00
2018-09-24T07:51:43.242Z,1608.00
2018-09-24T07:52:43.332Z,1576.00
2018-09-24T07:53:43.358Z,1652.00
2018-09-24T07:54:43.394Z,1712.00
2018-09-24T07:55:43.668Z,1780.00
2018-09-24T07:56:43.440Z,1788.00
2018-09-24T07:57:43.480Z,1688.00
2018-09-24T07:58:43.469Z,1592.00
2018-09-24T07:59:43.492Z,1420.00
2018-09-24T08:00:43.560Z,1292.00
2018-09-24T08:01:43.850Z,1112.00
2018-09-24T08:02:43.629Z,948.00
2018-09-24T08:03:43.610Z,868.00
2018-09-24T08:04:43.629Z,804.00
2018-09-24T08:05:43.664Z,768.00
2018-09-24T08:06:43.744Z,748.00
2018-09-24T08:07:44.019Z,856.00
2018-09-24T08:08:43.755Z,980.00
2018-09-24T08:09:43.778Z,956.00
2018-09-24T08:10:43.859Z,892.00
2018-09-24T08:11:43.890Z,876.00
2018-09-24T08:12:43.954Z,980.00
2018-09-24T08:13:43.948Z,908.00
2018-09-24T08:14:43.979Z,980.00
2018-09-24T08:15:44.007Z,976.00
2018-09-24T08:16:44.044Z,976.00
2018-09-24T08:17:44.071Z,972.00
2018-09-24T08:18:44.098Z,976.00
2018-09-24T08:19:44.079Z,972.00
2018-09-24T08:20:44.115Z,976.00
2018-09-24T08:22:44.170Z,972.00
2018-09-24T08:23:44.256Z,972.00
2018-09-24T08:24:44.230Z,976.00
2018-09-24T08:25:44.262Z,976.00
2018-09-24T08:26:44.335Z,976.00
2018-09-24T08:27:44.320Z,976.00
2018-09-24T08:28:44.419Z,976.00
2018-09-24T08:29:44.428Z,980.00
2018-09-24T08:30:44.416Z,976.00
2018-09-24T08:31:44.437Z,984.00
2018-09-24T08:32:44.826Z,988.00
2018-09-24T08:33:44.557Z,992.00
2018-09-24T08:34:44.599Z,988.00
2018-09-24T08:35:44.622Z,992.00
2018-09-24T08:36:44.594Z,996.00
2018-09-24T08:37:44.636Z,1008.00
2018-09-24T08:38:44.954Z,1020.00
2018-09-24T08:39:44.726Z,1020.00
2018-09-24T08:40:44.715Z,1016.00
2018-09-24T08:41:44.786Z,1012.00
2018-09-24T08:42:44.816Z,1012.00
2018-09-24T08:43:44.797Z,1016.00
2018-09-24T08:44:44.877Z,1016.00
2018-09-24T08:45:44.859Z,1016.00
2018-09-24T08:46:44.938Z,1016.00
2018-09-24T08:47:44.926Z,1016.00
2018-09-24T08:48:44.952Z,1020.00
2018-09-24T08:49:45.116Z,1024.00
2018-09-24T08:50:45.409Z,1032.00
2018-09-24T08:51:45.037Z,1044.00
2018-09-24T08:52:45.121Z,1064.00
2018-09-24T08:53:45.155Z,1080.00
2018-09-24T08:54:45.224Z,1108.00
2018-09-24T08:55:45.160Z,1136.00
2018-09-24T08:56:45.417Z,1168.00
2018-09-24T08:57:45.522Z,1192.00
2018-09-24T08:58:45.304Z,1204.00
2018-09-24T08:59:45.332Z,1200.00
2018-09-24T09:00:45.323Z,1192.00
2018-09-24T09:01:45.340Z,1192.00
2018-09-24T09:02:45.486Z,1188.00
2018-09-24T09:03:45.403Z,1176.00
2018-09-24T09:06:45.789Z,1164.00
2018-09-24T09:07:45.582Z,1248.00
2018-09-24T09:08:45.604Z,1296.00
2018-09-24T09:09:45.632Z,1332.00
2018-09-24T09:10:45.670Z,1356.00
2018-09-24T09:11:45.696Z,1340.00
2018-09-24T09:12:45.974Z,1316.00
2018-09-24T09:13:45.767Z,1300.00
2018-09-24T09:14:45.796Z,1272.00
2018-09-24T09:15:45.765Z,1524.00
2018-09-24T09:16:45.795Z,1820.00
2018-09-24T09:17:45.877Z,2332.00
2018-09-24T09:18:45.900Z,2644.00
2018-09-24T09:19:46.186Z,2768.00
2018-09-24T09:20:45.932Z,2680.00
2018-09-24T09:21:45.939Z,2740.00
2018-09-24T09:22:46.021Z,2776.00
2018-09-24T09:23:46.007Z,2860.00
2018-09-24T09:24:46.094Z,2928.00
2018-09-24T09:25:46.126Z,3008.00
2018-09-24T09:26:46.397Z,3308.00
2018-09-24T09:27:46.148Z,3252.00
2018-09-24T09:28:46.235Z,3000.00
2018-09-24T09:29:46.267Z,2528.00
2018-09-24T09:31:46.294Z,2352.00
2018-09-24T09:32:46.276Z,2428.00
2018-09-24T09:33:51.453Z,2496.00
2018-09-24T09:34:46.356Z,2344.00
2018-09-24T09:35:46.431Z,2268.00
2018-09-24T09:36:46.470Z,2204.00
2018-09-24T09:38:46.537Z,2204.00
2018-09-24T09:39:46.575Z,2248.00
2018-09-24T09:40:46.574Z,2192.00
2018-09-24T09:41:46.610Z,2228.00
2018-09-24T09:43:46.618Z,2204.00
2018-09-24T09:44:46.710Z,2332.00
2018-09-24T09:45:46.724Z,2360.00
2018-09-24T09:46:46.796Z,2304.00
2018-09-24T09:47:46.826Z,2292.00
2018-09-24T09:48:46.796Z,2152.00
2018-09-24T09:49:46.849Z,1800.00
2018-09-24T09:50:46.881Z,1848.00
2018-09-24T09:51:47.368Z,1908.00
2018-09-24T09:52:46.941Z,1804.00
2018-09-24T09:53:46.932Z,1804.00
2018-09-24T09:54:47.011Z,1688.00
2018-09-24T09:55:47.037Z,1496.00
2018-09-24T09:56:47.109Z,1452.00
2018-09-24T09:57:47.353Z,1528.00
2018-09-24T09:58:47.127Z,1648.00
2018-09-24T09:59:47.293Z,1628.00
2018-09-24T10:00:47.184Z,1572.00
2018-09-24T10:01:47.244Z,1496.00
2018-09-24T10:02:47.240Z,1436.00
2018-09-24T10:03:47.640Z,1380.00
2018-09-24T10:04:47.386Z,1452.00
2018-09-24T10:05:47.307Z,1632.00
2018-09-24T10:06:47.378Z,1876.00
2018-09-24T10:07:47.429Z,2288.00
2018-09-24T10:08:47.389Z,2856.00
2018-09-24T10:09:47.477Z,2508.00
2018-09-24T10:10:47.748Z,1872.00
2018-09-24T10:11:47.488Z,1376.00
2018-09-24T10:12:47.511Z,1396.00
2018-09-24T10:13:47.535Z,1100.00
2018-09-24T10:14:47.622Z,1116.00
2018-09-24T10:15:47.677Z,1104.00
2018-09-24T10:16:47.640Z,1368.00
2018-09-24T10:17:47.649Z,1372.00
2018-09-24T10:18:47.726Z,1376.00
2018-09-24T10:19:47.734Z,1384.00
2018-09-24T10:20:47.808Z,1636.00
2018-09-24T10:21:47.768Z,1424.00
2018-09-24T10:22:47.971Z,1360.00
2018-09-24T10:23:48.156Z,1332.00
2018-09-24T10:24:47.910Z,1452.00
2018-09-24T10:25:47.904Z,1456.00
2018-09-24T10:26:47.992Z,1480.00
2018-09-24T10:27:48.018Z,1460.00
2018-09-24T10:28:47.997Z,1512.00
2018-09-24T10:29:48.074Z,1744.00
2018-09-24T10:30:48.448Z,2624.00
2018-09-24T10:31:48.111Z,2320.00
2018-09-24T10:32:48.169Z,1952.00
2018-09-24T10:33:48.326Z,1676.00
2018-09-24T10:34:48.241Z,2000.00
2018-09-24T10:35:48.215Z,1916.00
2018-09-24T10:36:48.284Z,1808.00
2018-09-24T10:37:48.674Z,1920.00
2018-09-24T10:38:48.369Z,2676.00
2018-09-24T10:39:48.494Z,2880.00
2018-09-24T10:40:48.357Z,2608.00
2018-09-24T10:41:48.446Z,2788.00
2018-09-24T10:42:48.420Z,2604.00
2018-09-24T10:43:48.541Z,2556.00
2018-09-24T10:44:48.554Z,2456.00
2018-09-24T10:45:48.577Z,2136.00
2018-09-24T10:46:48.588Z,2040.00
2018-09-24T10:47:48.618Z,2296.00
2018-09-24T10:48:48.652Z,2176.00
2018-09-24T10:49:48.657Z,2372.00
2018-09-24T10:50:48.735Z,2336.00
2018-09-24T10:51:48.701Z,2780.00
2018-09-24T10:52:48.832Z,3000.00
2018-09-24T10:53:48.822Z,2628.00
2018-09-24T10:54:48.847Z,2988.00
2018-09-24T10:55:48.986Z,2920.00
2018-09-24T10:56:48.904Z,3144.00
2018-09-24T10:57:48.928Z,3248.00
2018-09-24T10:58:48.990Z,3488.00
2018-09-24T10:59:49.005Z,3788.00
2018-09-24T11:00:48.977Z,3880.00
2018-09-24T11:01:49.031Z,4332.00
2018-09-24T11:02:49.384Z,4772.00
2018-09-24T11:03:49.110Z,4080.00
2018-09-24T11:04:49.205Z,3896.00
2018-09-24T11:05:49.186Z,4200.00
2018-09-24T11:06:49.209Z,4228.00
2018-09-24T11:07:49.250Z,3964.00
2018-09-24T11:08:49.263Z,3368.00
2018-09-24T11:09:49.557Z,3084.00
2018-09-24T11:10:49.342Z,2912.00
2018-09-24T11:11:49.393Z,2612.00
2018-09-24T11:12:49.407Z,2612.00
2018-09-24T11:13:49.432Z,2712.00
2018-09-24T11:14:49.466Z,2932.00
2018-09-24T11:15:49.612Z,3280.00
2018-09-24T11:16:50.070Z,3704.00
2018-09-24T11:17:49.791Z,4240.00
2018-09-24T11:18:49.590Z,4080.00
2018-09-24T11:19:49.615Z,3420.00
2018-09-24T11:20:49.653Z,2804.00
2018-09-24T11:21:49.715Z,2504.00
2018-09-24T11:22:49.708Z,2356.00
2018-09-24T11:23:49.759Z,2604.00
2018-09-24T11:24:49.868Z,2044.00
2018-09-24T11:25:49.759Z,1988.00
2018-09-24T11:26:49.836Z,1976.00
2018-09-24T11:27:49.831Z,2080.00
2018-09-24T11:28:49.891Z,2556.00
2018-09-24T11:29:50.241Z,2220.00
2018-09-24T11:30:49.977Z,2016.00
2018-09-24T11:31:49.994Z,2020.00
2018-09-24T11:32:50.046Z,2144.00
2018-09-24T11:33:50.017Z,2048.00
2018-09-24T11:34:50.076Z,1608.00
2018-09-24T11:35:50.075Z,1292.00
2018-09-24T11:36:50.177Z,1268.00
2018-09-24T11:37:50.151Z,1636.00
2018-09-24T11:38:50.282Z,2144.00
2018-09-24T11:39:50.249Z,2688.00
2018-09-24T11:40:50.273Z,3044.00
2018-09-24T11:41:50.380Z,3044.00
2018-09-24T11:42:50.341Z,3176.00
2018-09-24T11:43:50.310Z,3160.00
2018-09-24T11:44:50.401Z,2924.00
2018-09-24T11:45:50.418Z,2420.00
2018-09-24T11:46:50.456Z,2136.00
2018-09-24T11:47:50.493Z,2208.00
2018-09-24T11:48:50.786Z,2172.00
2018-09-24T11:49:50.501Z,2540.00
2018-09-24T11:50:50.579Z,2900.00
2018-09-24T11:51:50.619Z,3400.00
2018-09-24T11:52:50.652Z,3836.00
2018-09-24T11:53:50.665Z,3984.00
2018-09-24T11:54:50.719Z,3792.00
2018-09-24T11:55:50.725Z,4096.00
2018-09-24T11:56:50.756Z,4320.00
2018-09-24T11:57:50.793Z,4696.00
2018-09-24T11:58:50.840Z,4876.00
2018-09-24T11:59:50.868Z,4180.00
2018-09-24T12:00:51.146Z,3468.00
2018-09-24T12:01:50.877Z,3280.00
2018-09-24T12:02:50.970Z,3004.00
2018-09-24T12:03:50.980Z,2800.00
2018-09-24T12:04:51.030Z,2828.00
2018-09-24T12:05:51.073Z,2844.00
2018-09-24T12:06:51.086Z,2628.00
2018-09-24T12:07:51.064Z,3212.00
2018-09-24T12:08:51.151Z,3616.00
2018-09-24T12:09:51.174Z,3584.00
2018-09-24T12:10:51.213Z,2904.00
2018-09-24T12:11:51.253Z,2664.00
2018-09-24T12:12:51.638Z,2820.00
2018-09-24T12:13:51.596Z,3308.00
2018-09-24T12:14:51.319Z,2792.00
2018-09-24T12:15:51.368Z,2192.00
2018-09-24T12:16:51.392Z,2036.00
2018-09-24T12:17:51.360Z,2056.00
2018-09-24T12:18:51.447Z,1992.00
2018-09-24T12:19:51.448Z,1964.00
2018-09-24T12:20:51.506Z,2036.00
2018-09-24T12:21:51.491Z,2048.00
2018-09-24T12:22:51.584Z,2080.00
2018-09-24T12:23:51.561Z,2144.00
2018-09-24T12:24:51.636Z,2192.00
2018-09-24T12:25:51.675Z,2188.00
2018-09-24T12:26:51.954Z,2028.00
2018-09-24T12:27:51.734Z,1976.00
2018-09-24T12:28:51.763Z,1988.00
2018-09-24T12:29:51.807Z,2020.00
2018-09-24T12:30:51.842Z,2040.00
2018-09-24T12:31:51.803Z,2048.00
2018-09-24T12:32:51.898Z,2068.00
2018-09-24T12:33:52.182Z,2084.00
2018-09-24T12:34:51.962Z,2104.00
2018-09-24T12:35:51.976Z,2104.00
2018-09-24T12:36:52.049Z,2136.00
2018-09-24T12:37:52.039Z,2164.00
2018-09-24T12:38:52.026Z,2192.00
2018-09-24T12:39:52.119Z,2232.00
2018-09-24T12:40:52.456Z,2296.00
2018-09-24T12:41:52.216Z,2428.00
2018-09-24T12:42:52.202Z,2696.00
2018-09-24T12:43:52.239Z,3196.00
2018-09-24T12:44:52.270Z,3656.00
2018-09-24T12:45:52.302Z,3628.00
2018-09-24T12:46:52.264Z,4284.00
2018-09-24T12:47:52.350Z,4728.00
2018-09-24T12:48:52.396Z,5420.00
2018-09-24T12:49:52.415Z,6672.00
2018-09-24T12:50:52.399Z,6796.00
2018-09-24T12:51:52.480Z,5900.00
2018-09-24T12:52:52.473Z,4828.00
2018-09-24T12:53:52.552Z,4156.00
2018-09-24T12:54:52.569Z,2668.00
2018-09-24T12:55:52.618Z,1624.00
2018-09-24T12:56:52.646Z,1404.00